UGD123 HJJJ-HUEN
Flight info
| Callsign | UGD123 |
|---|---|
| Flight time | 0h 52m |
| Altitude | 35000 |
| Route | ATUGA1D ATUGA G656 UVBAX UVBAX2A |
| Aircraft | CRJ9/M-SDFGIRWY/S |
Departure
| Time | 2026-04-21 00:30 |
|---|---|
| Airport | Juba International Airport (HJJJ) |
Arrival
| Time | 2026-04-21 01:23 |
|---|---|
| Airport | Entebbe International Airport (HUEN) |
| Time | Latitude | Longitude | Altitude | Speed | Heading |
|---|---|---|---|---|---|
| 2026-04-21 00:04 | 4.86560 | 31.60415 | 1508 ft | 0 kts | 220° |
| 2026-04-21 00:24 | 4.86560 | 31.60416 | 1512 ft | 2 kts | 220° |
| 2026-04-21 00:24 | 4.86580 | 31.60430 | 1503 ft | 4 kts | 208° |
| 2026-04-21 00:24 | 4.86605 | 31.60441 | 1506 ft | 4 kts | 192° |
| 2026-04-21 00:24 | 4.86632 | 31.60443 | 1507 ft | 4 kts | 172° |
| 2026-04-21 00:25 | 4.86657 | 31.60436 | 1511 ft | 4 kts | 146° |
| 2026-04-21 00:25 | 4.86669 | 31.60426 | 1509 ft | 0 kts | 130° |
| 2026-04-21 00:27 | 4.86668 | 31.60427 | 1508 ft | 1 kts | 130° |
| 2026-04-21 00:27 | 4.86654 | 31.60442 | 1508 ft | 5 kts | 133° |
| 2026-04-21 00:27 | 4.86623 | 31.60477 | 1509 ft | 9 kts | 130° |
| 2026-04-21 00:27 | 4.86576 | 31.60532 | 1507 ft | 12 kts | 130° |
| 2026-04-21 00:28 | 4.86518 | 31.60602 | 1509 ft | 14 kts | 130° |
| 2026-04-21 00:28 | 4.86446 | 31.60687 | 1507 ft | 18 kts | 130° |
| 2026-04-21 00:28 | 4.86381 | 31.60768 | 1504 ft | 9 kts | 111° |
| 2026-04-21 00:28 | 4.86410 | 31.60831 | 1503 ft | 13 kts | 40° |
| 2026-04-21 00:29 | 4.86485 | 31.60894 | 1502 ft | 15 kts | 39° |
| 2026-04-21 00:29 | 4.86517 | 31.60913 | 1502 ft | 3 kts | 351° |
| 2026-04-21 00:29 | 4.86536 | 31.60901 | 1503 ft | 4 kts | 312° |
| 2026-04-21 00:29 | 4.86559 | 31.60874 | 1503 ft | 13 kts | 310° |
| 2026-04-21 00:30 | 4.86763 | 31.60628 | 1506 ft | 85 kts | 310° |
| 2026-04-21 00:30 | 4.87308 | 31.59985 | 1510 ft | 154 kts | 310° |
| 2026-04-21 00:30 | 4.88100 | 31.59067 | 1812 ft | 187 kts | 311° |
| 2026-04-21 00:30 | 4.88993 | 31.58108 | 2663 ft | 188 kts | 314° |
| 2026-04-21 00:31 | 4.89874 | 31.57097 | 3377 ft | 199 kts | 313° |
| 2026-04-21 00:31 | 4.90786 | 31.56012 | 3972 ft | 209 kts | 311° |
| 2026-04-21 00:31 | 4.91774 | 31.54802 | 4062 ft | 247 kts | 312° |
| 2026-04-21 00:31 | 4.92974 | 31.53382 | 4350 ft | 277 kts | 311° |
| 2026-04-21 00:32 | 4.94205 | 31.51856 | 5096 ft | 289 kts | 304° |
| 2026-04-21 00:32 | 4.94812 | 31.49944 | 6014 ft | 295 kts | 270° |
| 2026-04-21 00:32 | 4.94324 | 31.47961 | 6836 ft | 297 kts | 238° |
| 2026-04-21 00:32 | 4.92925 | 31.46464 | 7686 ft | 297 kts | 214° |
| 2026-04-21 00:33 | 4.91235 | 31.45244 | 8508 ft | 301 kts | 212° |
| 2026-04-21 00:33 | 4.89499 | 31.44026 | 9353 ft | 306 kts | 213° |
| 2026-04-21 00:33 | 4.87743 | 31.42840 | 10116 ft | 309 kts | 202° |
| 2026-04-21 00:33 | 4.85706 | 31.42424 | 10913 ft | 302 kts | 173° |
| 2026-04-21 00:34 | 4.83628 | 31.42732 | 11674 ft | 303 kts | 162° |
| 2026-04-21 00:34 | 4.81590 | 31.43286 | 12441 ft | 306 kts | 159° |
| 2026-04-21 00:34 | 4.79534 | 31.43917 | 13057 ft | 317 kts | 159° |
| 2026-04-21 00:34 | 4.77362 | 31.44594 | 13350 ft | 337 kts | 160° |
| 2026-04-21 00:35 | 4.75049 | 31.45257 | 13715 ft | 354 kts | 161° |
| 2026-04-21 00:35 | 4.72617 | 31.45892 | 14174 ft | 365 kts | 162° |
| 2026-04-21 00:35 | 4.70142 | 31.46519 | 14851 ft | 368 kts | 162° |
| 2026-04-21 00:35 | 4.67653 | 31.47167 | 15528 ft | 372 kts | 162° |
| 2026-04-21 00:36 | 4.65139 | 31.47828 | 16186 ft | 375 kts | 162° |
| 2026-04-21 00:36 | 4.62604 | 31.48501 | 16844 ft | 378 kts | 162° |
| 2026-04-21 00:36 | 4.60066 | 31.49239 | 17464 ft | 380 kts | 154° |
| 2026-04-21 00:36 | 4.57846 | 31.50650 | 18085 ft | 378 kts | 139° |
| 2026-04-21 00:37 | 4.55893 | 31.52420 | 18606 ft | 380 kts | 133° |
| 2026-04-21 00:37 | 4.54055 | 31.54302 | 19121 ft | 383 kts | 132° |
| 2026-04-21 00:37 | 4.52205 | 31.56239 | 19652 ft | 386 kts | 132° |
| 2026-04-21 00:37 | 4.50303 | 31.58163 | 20136 ft | 390 kts | 134° |
| 2026-04-21 00:38 | 4.48349 | 31.60062 | 20630 ft | 393 kts | 134° |
| 2026-04-21 00:38 | 4.46368 | 31.61966 | 21117 ft | 396 kts | 134° |
| 2026-04-21 00:38 | 4.44373 | 31.63899 | 21588 ft | 400 kts | 135° |
| 2026-04-21 00:38 | 4.42358 | 31.65840 | 22048 ft | 403 kts | 134° |
| 2026-04-21 00:39 | 4.40335 | 31.67798 | 22502 ft | 406 kts | 134° |
| 2026-04-21 00:39 | 4.38300 | 31.69771 | 22936 ft | 409 kts | 134° |
| 2026-04-21 00:39 | 4.36242 | 31.71765 | 23372 ft | 412 kts | 134° |
| 2026-04-21 00:39 | 4.34173 | 31.73771 | 23735 ft | 415 kts | 134° |
| 2026-04-21 00:40 | 4.32094 | 31.75786 | 24095 ft | 417 kts | 135° |
| 2026-04-21 00:40 | 4.30003 | 31.77814 | 24453 ft | 419 kts | 135° |
| 2026-04-21 00:40 | 4.27888 | 31.79841 | 24791 ft | 422 kts | 138° |
| 2026-04-21 00:40 | 4.25407 | 31.81362 | 25071 ft | 428 kts | 157° |
| 2026-04-21 00:41 | 4.22576 | 31.82036 | 25380 ft | 433 kts | 174° |
| 2026-04-21 00:41 | 4.19479 | 31.82028 | 25707 ft | 437 kts | 184° |
| 2026-04-21 00:41 | 4.16440 | 31.81672 | 26022 ft | 440 kts | 186° |
| 2026-04-21 00:41 | 4.13399 | 31.81267 | 26343 ft | 442 kts | 186° |
| 2026-04-21 00:42 | 4.10360 | 31.80902 | 26645 ft | 444 kts | 185° |
| 2026-04-21 00:42 | 4.07277 | 31.80620 | 26949 ft | 446 kts | 183° |
| 2026-04-21 00:42 | 4.04155 | 31.80350 | 26975 ft | 455 kts | 184° |
| 2026-04-21 00:42 | 4.00995 | 31.80078 | 27312 ft | 455 kts | 181° |
| 2026-04-21 00:43 | 3.98358 | 31.80090 | 27629 ft | 453 kts | 175° |
| 2026-04-21 00:43 | 3.95221 | 31.80387 | 28004 ft | 452 kts | 171° |
| 2026-04-21 00:43 | 3.92105 | 31.80820 | 28382 ft | 451 kts | 171° |
| 2026-04-21 00:43 | 3.88998 | 31.81256 | 28757 ft | 451 kts | 171° |
| 2026-04-21 00:44 | 3.85887 | 31.81654 | 29120 ft | 450 kts | 172° |
| 2026-04-21 00:44 | 3.82776 | 31.82001 | 29491 ft | 450 kts | 172° |
| 2026-04-21 00:44 | 3.79671 | 31.82353 | 29857 ft | 449 kts | 172° |
| 2026-04-21 00:45 | 3.73466 | 31.83061 | 30456 ft | 448 kts | 172° |
| 2026-04-21 00:45 | 3.70375 | 31.83413 | 30747 ft | 448 kts | 172° |
| 2026-04-21 00:45 | 3.67279 | 31.83766 | 31034 ft | 447 kts | 172° |
| 2026-04-21 00:45 | 3.64190 | 31.84116 | 31309 ft | 447 kts | 172° |
| 2026-04-21 00:46 | 3.61102 | 31.84468 | 31583 ft | 446 kts | 172° |
| 2026-04-21 00:46 | 3.58022 | 31.84818 | 31858 ft | 446 kts | 172° |
| 2026-04-21 00:46 | 3.54937 | 31.85170 | 32123 ft | 445 kts | 172° |
| 2026-04-21 00:46 | 3.51901 | 31.85513 | 32396 ft | 445 kts | 173° |
| 2026-04-21 00:47 | 3.48829 | 31.85863 | 32669 ft | 444 kts | 173° |
| 2026-04-21 00:47 | 3.45758 | 31.86213 | 32925 ft | 444 kts | 173° |
| 2026-04-21 00:47 | 3.42691 | 31.86562 | 33194 ft | 443 kts | 173° |
| 2026-04-21 00:47 | 3.39632 | 31.86910 | 33442 ft | 443 kts | 173° |
| 2026-04-21 00:48 | 3.36568 | 31.87258 | 33705 ft | 442 kts | 173° |
| 2026-04-21 00:48 | 3.33510 | 31.87606 | 33941 ft | 442 kts | 173° |
| 2026-04-21 00:48 | 3.30458 | 31.87950 | 34146 ft | 441 kts | 173° |
| 2026-04-21 00:48 | 3.27408 | 31.88297 | 34358 ft | 441 kts | 173° |
| 2026-04-21 00:49 | 3.24362 | 31.88645 | 34574 ft | 440 kts | 173° |
| 2026-04-21 00:49 | 3.21310 | 31.88991 | 34727 ft | 441 kts | 173° |
| 2026-04-21 00:49 | 3.15215 | 31.89682 | 34840 ft | 448 kts | 173° |
| 2026-04-21 00:50 | 3.08956 | 31.90395 | 34877 ft | 457 kts | 173° |
| 2026-04-21 00:50 | 3.02645 | 31.91110 | 34880 ft | 451 kts | 173° |
| 2026-04-21 00:51 | 2.96554 | 31.91803 | 34870 ft | 438 kts | 173° |
| 2026-04-21 00:51 | 2.90562 | 31.92485 | 34868 ft | 430 kts | 173° |
| 2026-04-21 00:52 | 2.84614 | 31.93156 | 34875 ft | 430 kts | 173° |
| 2026-04-21 00:52 | 2.78663 | 31.93835 | 34883 ft | 431 kts | 173° |
| 2026-04-21 00:53 | 2.72663 | 31.94515 | 34889 ft | 437 kts | 173° |
| 2026-04-21 00:53 | 2.66566 | 31.95208 | 34891 ft | 444 kts | 173° |
| 2026-04-21 00:54 | 2.60402 | 31.95904 | 34890 ft | 447 kts | 173° |
| 2026-04-21 00:54 | 2.54210 | 31.96616 | 34892 ft | 447 kts | 172° |
| 2026-04-21 00:55 | 2.48075 | 31.97583 | 34886 ft | 445 kts | 168° |
| 2026-04-21 00:55 | 2.42059 | 31.98813 | 34885 ft | 442 kts | 168° |
| 2026-04-21 00:56 | 2.36035 | 32.00000 | 34881 ft | 440 kts | 168° |
| 2026-04-21 00:56 | 2.30036 | 32.01144 | 34876 ft | 438 kts | 168° |
| 2026-04-21 00:57 | 2.24065 | 32.02279 | 34881 ft | 435 kts | 168° |
| 2026-04-21 00:57 | 2.18123 | 32.03408 | 34886 ft | 433 kts | 168° |
| 2026-04-21 00:58 | 2.12216 | 32.04532 | 34889 ft | 431 kts | 168° |
| 2026-04-21 00:58 | 2.06323 | 32.05655 | 34884 ft | 429 kts | 168° |
| 2026-04-21 00:59 | 2.00463 | 32.06770 | 34892 ft | 428 kts | 168° |
| 2026-04-21 00:59 | 1.94647 | 32.07873 | 34893 ft | 428 kts | 168° |
| 2026-04-21 01:00 | 1.91724 | 32.08436 | 34743 ft | 429 kts | 168° |
| 2026-04-21 01:00 | 1.88781 | 32.08994 | 34468 ft | 430 kts | 168° |
| 2026-04-21 01:00 | 1.85841 | 32.09549 | 34213 ft | 430 kts | 168° |
| 2026-04-21 01:00 | 1.82895 | 32.10109 | 33972 ft | 431 kts | 168° |
| 2026-04-21 01:01 | 1.79954 | 32.10672 | 33577 ft | 431 kts | 168° |
| 2026-04-21 01:01 | 1.76998 | 32.11234 | 33004 ft | 432 kts | 168° |
| 2026-04-21 01:01 | 1.74040 | 32.11795 | 32452 ft | 434 kts | 168° |
| 2026-04-21 01:01 | 1.71069 | 32.12363 | 31901 ft | 435 kts | 168° |
| 2026-04-21 01:02 | 1.68082 | 32.12934 | 31357 ft | 437 kts | 168° |
| 2026-04-21 01:02 | 1.65135 | 32.13494 | 30961 ft | 435 kts | 168° |
| 2026-04-21 01:02 | 1.62161 | 32.14060 | 30576 ft | 433 kts | 168° |
| 2026-04-21 01:02 | 1.59206 | 32.14623 | 30194 ft | 431 kts | 168° |
| 2026-04-21 01:03 | 1.56270 | 32.15182 | 29691 ft | 428 kts | 168° |
| 2026-04-21 01:03 | 1.53356 | 32.15736 | 29122 ft | 424 kts | 168° |
| 2026-04-21 01:03 | 1.50476 | 32.16286 | 28574 ft | 420 kts | 167° |
| 2026-04-21 01:03 | 1.47615 | 32.16828 | 28039 ft | 416 kts | 167° |
| 2026-04-21 01:04 | 1.44786 | 32.17367 | 27520 ft | 412 kts | 167° |
| 2026-04-21 01:04 | 1.41983 | 32.17900 | 26995 ft | 408 kts | 167° |
| 2026-04-21 01:04 | 1.39164 | 32.18437 | 25692 ft | 420 kts | 167° |
| 2026-04-21 01:04 | 1.36239 | 32.18993 | 24632 ft | 430 kts | 167° |
| 2026-04-21 01:05 | 1.33315 | 32.19549 | 24038 ft | 426 kts | 167° |
| 2026-04-21 01:05 | 1.30415 | 32.20102 | 23451 ft | 422 kts | 167° |
| 2026-04-21 01:05 | 1.27545 | 32.20647 | 22743 ft | 419 kts | 167° |
| 2026-04-21 01:05 | 1.24695 | 32.21190 | 22106 ft | 415 kts | 167° |
| 2026-04-21 01:06 | 1.21867 | 32.21728 | 21512 ft | 411 kts | 167° |
| 2026-04-21 01:06 | 1.19108 | 32.22252 | 20925 ft | 407 kts | 167° |
| 2026-04-21 01:06 | 1.16338 | 32.22781 | 20370 ft | 403 kts | 167° |
| 2026-04-21 01:06 | 1.13598 | 32.23306 | 19825 ft | 397 kts | 167° |
| 2026-04-21 01:07 | 1.10906 | 32.23821 | 18842 ft | 392 kts | 167° |
| 2026-04-21 01:07 | 1.08241 | 32.24330 | 17923 ft | 386 kts | 167° |
| 2026-04-21 01:07 | 1.05624 | 32.24846 | 16949 ft | 380 kts | 166° |
| 2026-04-21 01:07 | 1.03055 | 32.25371 | 16020 ft | 374 kts | 166° |
| 2026-04-21 01:08 | 1.00520 | 32.25894 | 15111 ft | 369 kts | 166° |
| 2026-04-21 01:08 | 0.98014 | 32.26408 | 14235 ft | 364 kts | 166° |
| 2026-04-21 01:08 | 0.95585 | 32.26908 | 13373 ft | 359 kts | 166° |
| 2026-04-21 01:08 | 0.93157 | 32.27408 | 12446 ft | 354 kts | 166° |
| 2026-04-21 01:09 | 0.90753 | 32.27907 | 11505 ft | 351 kts | 166° |
| 2026-04-21 01:09 | 0.88375 | 32.28397 | 10608 ft | 347 kts | 166° |
| 2026-04-21 01:09 | 0.86016 | 32.28881 | 9709 ft | 344 kts | 166° |
| 2026-04-21 01:09 | 0.84059 | 32.29287 | 8918 ft | 341 kts | 167° |
| 2026-04-21 01:10 | 0.81750 | 32.29767 | 8013 ft | 336 kts | 167° |
| 2026-04-21 01:10 | 0.79508 | 32.30232 | 7493 ft | 321 kts | 168° |
| 2026-04-21 01:10 | 0.77376 | 32.30667 | 7345 ft | 305 kts | 168° |
| 2026-04-21 01:10 | 0.75336 | 32.31082 | 7175 ft | 293 kts | 168° |
| 2026-04-21 01:11 | 0.73371 | 32.31488 | 6910 ft | 286 kts | 168° |
| 2026-04-21 01:11 | 0.71446 | 32.31886 | 6678 ft | 278 kts | 168° |
| 2026-04-21 01:11 | 0.69561 | 32.32276 | 6573 ft | 279 kts | 168° |
| 2026-04-21 01:11 | 0.67639 | 32.32668 | 6533 ft | 284 kts | 168° |
| 2026-04-21 01:12 | 0.65697 | 32.33067 | 6517 ft | 285 kts | 168° |
| 2026-04-21 01:12 | 0.63758 | 32.33465 | 6509 ft | 285 kts | 168° |
| 2026-04-21 01:12 | 0.61819 | 32.33865 | 6527 ft | 283 kts | 167° |
| 2026-04-21 01:12 | 0.60551 | 32.34135 | 6537 ft | 282 kts | 167° |
| 2026-04-21 01:13 | 0.58631 | 32.34539 | 6525 ft | 280 kts | 167° |
| 2026-04-21 01:13 | 0.56732 | 32.34943 | 6515 ft | 278 kts | 167° |
| 2026-04-21 01:13 | 0.54226 | 32.35476 | 6503 ft | 278 kts | 168° |
| 2026-04-21 01:13 | 0.52335 | 32.35870 | 6499 ft | 278 kts | 168° |
| 2026-04-21 01:14 | 0.50440 | 32.36257 | 6507 ft | 278 kts | 168° |
| 2026-04-21 01:14 | 0.48551 | 32.36642 | 6497 ft | 277 kts | 168° |
| 2026-04-21 01:14 | 0.47273 | 32.36905 | 6501 ft | 277 kts | 168° |
| 2026-04-21 01:14 | 0.45382 | 32.37293 | 6505 ft | 277 kts | 168° |
| 2026-04-21 01:15 | 0.43496 | 32.37682 | 6499 ft | 277 kts | 168° |
| 2026-04-21 01:15 | 0.41641 | 32.38066 | 6504 ft | 274 kts | 168° |
| 2026-04-21 01:15 | 0.39782 | 32.38448 | 6493 ft | 271 kts | 168° |
| 2026-04-21 01:15 | 0.37940 | 32.38828 | 6498 ft | 269 kts | 168° |
| 2026-04-21 01:16 | 0.36112 | 32.39205 | 6497 ft | 267 kts | 168° |
| 2026-04-21 01:16 | 0.34294 | 32.39580 | 6502 ft | 266 kts | 168° |
| 2026-04-21 01:16 | 0.32476 | 32.39928 | 6483 ft | 266 kts | 170° |
| 2026-04-21 01:16 | 0.30652 | 32.40194 | 6368 ft | 264 kts | 172° |
| 2026-04-21 01:17 | 0.28829 | 32.40425 | 6121 ft | 263 kts | 173° |
| 2026-04-21 01:17 | 0.27052 | 32.40635 | 6098 ft | 252 kts | 173° |
| 2026-04-21 01:17 | 0.25345 | 32.40843 | 6105 ft | 242 kts | 172° |
| 2026-04-21 01:17 | 0.23715 | 32.41059 | 6194 ft | 231 kts | 172° |
| 2026-04-21 01:18 | 0.22151 | 32.41276 | 6218 ft | 223 kts | 172° |
| 2026-04-21 01:18 | 0.20702 | 32.41489 | 6328 ft | 195 kts | 171° |
| 2026-04-21 01:18 | 0.19434 | 32.41673 | 6291 ft | 179 kts | 171° |
| 2026-04-21 01:18 | 0.18210 | 32.41854 | 6259 ft | 177 kts | 171° |
| 2026-04-21 01:19 | 0.16974 | 32.42036 | 6023 ft | 182 kts | 171° |
| 2026-04-21 01:19 | 0.15716 | 32.42212 | 5757 ft | 179 kts | 172° |
| 2026-04-21 01:19 | 0.14538 | 32.42374 | 5491 ft | 163 kts | 172° |
| 2026-04-21 01:19 | 0.13487 | 32.42517 | 5370 ft | 146 kts | 172° |
| 2026-04-21 01:20 | 0.12480 | 32.42659 | 5207 ft | 148 kts | 172° |
| 2026-04-21 01:20 | 0.11463 | 32.42801 | 5007 ft | 152 kts | 172° |
| 2026-04-21 01:20 | 0.10409 | 32.42946 | 4796 ft | 154 kts | 172° |
| 2026-04-21 01:20 | 0.09344 | 32.43093 | 4598 ft | 154 kts | 172° |
| 2026-04-21 01:21 | 0.08291 | 32.43222 | 4391 ft | 152 kts | 173° |
| 2026-04-21 01:21 | 0.07247 | 32.43358 | 4175 ft | 150 kts | 169° |
| 2026-04-21 01:21 | 0.06213 | 32.43527 | 3956 ft | 153 kts | 169° |
| 2026-04-21 01:21 | 0.05176 | 32.43672 | 3782 ft | 141 kts | 171° |
| 2026-04-21 01:22 | 0.04385 | 32.43783 | 3783 ft | 91 kts | 173° |
| 2026-04-21 01:22 | 0.03875 | 32.43852 | 3783 ft | 59 kts | 172° |
| 2026-04-21 01:22 | 0.03464 | 32.43909 | 3790 ft | 58 kts | 172° |
| 2026-04-21 01:22 | 0.03080 | 32.43965 | 3786 ft | 53 kts | 173° |
| 2026-04-21 01:23 | 0.02899 | 32.44049 | 3783 ft | 1 kts | 142° |
| 2026-04-21 01:23 | 0.02893 | 32.44054 | 3783 ft | 3 kts | 142° |
| 2026-04-21 01:23 | 0.02866 | 32.44075 | 3782 ft | 7 kts | 142° |
| 2026-04-21 01:23 | 0.02822 | 32.44114 | 3782 ft | 10 kts | 121° |
| 2026-04-21 01:24 | 0.02840 | 32.44165 | 3784 ft | 9 kts | 21° |
| 2026-04-21 01:24 | 0.02914 | 32.44161 | 3786 ft | 13 kts | 352° |
| 2026-04-21 01:24 | 0.03012 | 32.44148 | 3786 ft | 15 kts | 352° |
| 2026-04-21 01:24 | 0.03122 | 32.44132 | 3786 ft | 17 kts | 352° |
| 2026-04-21 01:25 | 0.03242 | 32.44116 | 3782 ft | 18 kts | 352° |
| 2026-04-21 01:25 | 0.03376 | 32.44097 | 3783 ft | 20 kts | 352° |
| 2026-04-21 01:25 | 0.03519 | 32.44077 | 3781 ft | 22 kts | 352° |
| 2026-04-21 01:25 | 0.03676 | 32.44055 | 3780 ft | 23 kts | 352° |
| 2026-04-21 01:26 | 0.03843 | 32.44032 | 3785 ft | 25 kts | 352° |
| 2026-04-21 01:26 | 0.04021 | 32.44008 | 3783 ft | 26 kts | 352° |
| 2026-04-21 01:26 | 0.04171 | 32.43988 | 3778 ft | 8 kts | 4° |
| 2026-04-21 01:26 | 0.04205 | 32.44026 | 3781 ft | 9 kts | 76° |
| 2026-04-21 01:27 | 0.04215 | 32.44093 | 3778 ft | 11 kts | 82° |
| 2026-04-21 01:27 | 0.04256 | 32.44136 | 3784 ft | 10 kts | 3° |
| 2026-04-21 01:27 | 0.04328 | 32.44127 | 3778 ft | 12 kts | 352° |
| 2026-04-21 01:27 | 0.04414 | 32.44115 | 3778 ft | 13 kts | 352° |
| 2026-04-21 01:28 | 0.04472 | 32.44107 | 3780 ft | 2 kts | 352° |
| 2026-04-21 01:28 | 0.04489 | 32.44108 | 3778 ft | 2 kts | 31° |
| 2026-04-21 01:28 | 0.04499 | 32.44124 | 3778 ft | 4 kts | 68° |
| 2026-04-21 01:28 | 0.04506 | 32.44154 | 3778 ft | 5 kts | 81° |
| 2026-04-21 01:29 | 0.04510 | 32.44185 | 3782 ft | 5 kts | 82° |
| 2026-04-21 01:29 | 0.04511 | 32.44190 | 3783 ft | 1 kts | 81° |
| 2026-04-21 01:29 | 0.04511 | 32.44192 | 3784 ft | 0 kts | 81° |